Aeroporto :
LOGIN :

Iscrizione | Disclaimer

   EN    FR    IT 

 










Sommario :    VFR   VFR Marginale   IFR   IFR Intensivo   IFR Molto Intensivo
Visibilità : 
Base nubi : 
>= 8 km
>= 3000ft
5 / 8 km
1000 / 3000 ft
1500m / 5 km
500 / 1000 ft
800 / 1500m
200 / 500 ft
< 800m
< 200 ft
Simboli :   Temporali  Nebbia  Neve Forte  Precipitazioni Forti  Vento > 20 kt
SIGMETs :   Varie  Temporali  Ghiacco  Turbolenza  Onda orograficha  Ceneri Vulcaniche







- Altitudine del aeroporto : 26 ft


ETNT - Wittmundhaven AB

ULTIMO METAR :
  • 230427Z 22004KT 9999 R26/0350N MIFG FEW230 15/15 Q1021 BLU+BLU+

METARs OBSOLETI :
  • 230411Z 21003KT 1200 R26/0250N BCFG FEW230 15/14 Q1021 AMB AMB BECMG BLU+
  • 230347Z 22003KT 0600 R26/0350N BCFG FEW230 16/15 Q1021 RED
  • 230320Z 20003KT 0300 R26/0800U BCFG FEW230 15/15 Q1021 RED
  • 230220Z 22004KT 1200 R26/0350D BCFG FEW230 16/15 Q1021 AMB

TAF COR TAF ETNT
Valido dal 23 a 05 ore il 23 a 14 ore UTC


230428Z 2305/2314 23005KT 9999 NSW FEW350
BECMG 2312/2314 01010KT 9999 NSW FEW350 BY ETGL
Nessun NOTAM noto per questo aeroporto.



MetMap, La meteo Aeronautica in un colpo d'occhio ! - Copyright ORBIFLY Dicembre 2007 - Disclaimer

ORBIFLY MET'MAP TEAM :

Programmazione e sviluppo : Alexandra Zaïnal
Concezione e sviluppo : Baudouin d'Aumeries
Co-Programmazione e sviluppo : Marc-Olivier Méhu
Supporto tecnico e logistico : Manuel Goepfert
Aiuto per la traduzione : Arnaldo La Scala

Contatto : metmap@orbifly.com




FONTI E CREDITI :

   NOAA